Time;durP1;ratioP1;P1;durP2;ratioP2;P2;SDS_P1;SDS_P2;PMS_P1;PMS_P2;Temp;Humidity;BMP_temperature;BMP_pressure;BME280_temperature;BME280_humidity;BME280_pressure;Samples;Min_cycle;Max_cycle;Signal;HPM_P1;HPM_P2
2023/09/09 00:00:07;;;;;;;16.80;15.40;;;17.70;99.90;;;;;;5000447;28;20208;-79
2023/09/09 00:02:38;;;;;;;17.03;15.63;;;17.70;99.90;;;;;;5000369;28;20193;-78
2023/09/09 00:05:06;;;;;;;15.80;14.50;;;17.60;99.90;;;;;;4995319;28;20689;-79
2023/09/09 00:07:33;;;;;;;16.03;14.63;;;17.60;99.90;;;;;;4994953;28;20217;-78
2023/09/09 00:09:59;;;;;;;16.37;14.87;;;17.60;99.90;;;;;;5008483;28;20788;-79
2023/09/09 00:12:28;;;;;;;16.23;14.93;;;17.60;99.90;;;;;;5001616;28;20252;-78
2023/09/09 00:14:54;;;;;;;15.23;14.03;;;17.60;99.90;;;;;;5002270;28;20227;-79
2023/09/09 00:17:21;;;;;;;17.27;15.73;;;17.60;99.90;;;;;;5000112;28;20210;-79
2023/09/09 00:19:49;;;;;;;17.23;15.73;;;17.60;99.90;;;;;;5000644;28;20696;-78
2023/09/09 00:22:18;;;;;;;15.77;14.30;;;17.60;99.90;;;;;;4998010;28;20193;-78
2023/09/09 00:24:44;;;;;;;15.63;14.33;;;17.50;99.90;;;;;;4999011;28;20807;-79
2023/09/09 00:27:11;;;;;;;17.23;15.83;;;17.50;99.90;;;;;;5002135;28;20202;-78
2023/09/09 00:29:39;;;;;;;16.37;14.97;;;17.40;99.90;;;;;;5000921;28;20216;-79
2023/09/09 00:32:06;;;;;;;15.67;14.33;;;17.40;99.90;;;;;;5005158;28;20214;-78
2023/09/09 00:34:34;;;;;;;15.73;14.37;;;17.40;99.90;;;;;;4998506;28;20217;-79
2023/09/09 00:37:03;;;;;;;16.67;15.17;;;17.40;99.90;;;;;;5002431;28;20198;-80
2023/09/09 00:39:30;;;;;;;15.50;14.30;;;17.30;99.90;;;;;;4997791;28;20200;-79
2023/09/09 00:41:57;;;;;;;16.60;15.20;;;17.30;99.90;;;;;;4995802;28;20595;-79
2023/09/09 00:44:24;;;;;;;17.20;15.50;;;17.30;99.90;;;;;;5001451;28;20193;-78
2023/09/09 00:46:52;;;;;;;16.03;14.70;;;17.30;99.90;;;;;;5010653;28;20204;-78
2023/09/09 00:49:20;;;;;;;17.10;15.40;;;17.30;99.90;;;;;;4997250;28;20213;-79
2023/09/09 00:51:47;;;;;;;18.00;16.33;;;17.20;99.90;;;;;;4998469;28;20214;-78
2023/09/09 00:54:14;;;;;;;16.60;15.30;;;17.20;99.90;;;;;;4999699;28;20197;-78
2023/09/09 00:56:42;;;;;;;16.43;15.03;;;17.10;99.90;;;;;;5001650;28;20201;-78
2023/09/09 00:59:10;;;;;;;16.70;15.20;;;17.10;99.90;;;;;;5004740;28;20351;-77
2023/09/09 01:01:37;;;;;;;16.63;15.13;;;17.10;99.90;;;;;;5001195;28;20283;-79
2023/09/09 01:04:06;;;;;;;17.50;15.90;;;17.00;99.90;;;;;;4994587;28;20202;-77
2023/09/09 01:06:33;;;;;;;16.17;14.77;;;17.00;99.90;;;;;;4998230;28;20267;-79
2023/09/09 01:09:06;;;;;;;16.77;15.27;;;17.00;99.90;;;;;;4999495;28;20225;-78
2023/09/09 01:11:33;;;;;;;16.50;15.20;;;17.00;99.90;;;;;;5001476;28;20205;-78
2023/09/09 01:14:00;;;;;;;16.37;15.03;;;16.90;99.90;;;;;;5000845;28;20208;-79
2023/09/09 01:16:27;;;;;;;16.93;15.50;;;16.90;99.90;;;;;;4998905;28;20197;-78
2023/09/09 01:18:54;;;;;;;17.37;15.90;;;16.90;99.90;;;;;;5004112;28;20236;-78
2023/09/09 01:21:25;;;;;;;16.23;14.90;;;16.90;99.90;;;;;;5002902;28;20194;-79
2023/09/09 01:23:54;;;;;;;16.87;15.47;;;16.90;99.90;;;;;;4995558;28;20232;-77
2023/09/09 01:26:21;;;;;;;17.03;15.50;;;16.90;99.90;;;;;;4998396;28;20236;-78
2023/09/09 01:28:48;;;;;;;17.60;16.10;;;16.90;99.90;;;;;;5006868;28;20238;-79
2023/09/09 01:31:15;;;;;;;16.93;15.60;;;16.90;99.90;;;;;;5000323;28;20196;-79
2023/09/09 01:33:42;;;;;;;16.63;15.23;;;16.90;99.90;;;;;;5013191;28;20215;-78
2023/09/09 01:36:11;;;;;;;16.50;15.17;;;16.90;99.90;;;;;;5014227;28;20193;-78
2023/09/09 01:38:38;;;;;;;17.43;15.73;;;16.90;99.90;;;;;;5012875;28;20232;-78
2023/09/09 01:41:06;;;;;;;16.90;15.40;;;16.90;99.90;;;;;;5010729;28;20200;-78
2023/09/09 01:43:34;;;;;;;17.97;16.33;;;16.90;99.90;;;;;;5004078;28;20209;-78
2023/09/09 01:46:02;;;;;;;16.50;15.20;;;16.90;99.90;;;;;;4994707;28;20205;-79
2023/09/09 01:48:29;;;;;;;17.33;15.93;;;16.90;99.90;;;;;;5000039;28;20230;-78
2023/09/09 01:50:56;;;;;;;16.97;15.63;;;16.90;99.90;;;;;;5002668;28;20630;-78
2023/09/09 01:53:23;;;;;;;17.70;16.30;;;16.90;99.90;;;;;;5008119;28;20205;-79
2023/09/09 01:55:49;;;;;;;18.47;17.07;;;16.90;99.90;;;;;;4996494;28;20259;-78
2023/09/09 01:58:18;;;;;;;17.03;15.57;;;16.90;99.90;;;;;;5000790;28;20231;-79
2023/09/09 02:00:44;;;;;;;17.30;15.90;;;16.90;99.90;;;;;;5002019;28;20227;-78
2023/09/09 02:03:11;;;;;;;18.23;16.70;;;16.90;99.90;;;;;;4994253;28;20672;-78
2023/09/09 02:05:39;;;;;;;18.17;16.67;;;16.90;99.90;;;;;;4999120;28;20205;-79
2023/09/09 02:08:06;;;;;;;18.17;16.53;;;16.90;99.90;;;;;;4999428;28;20224;-79
2023/09/09 02:10:32;;;;;;;18.60;17.00;;;16.80;99.90;;;;;;5007034;28;20232;-78
2023/09/09 02:12:59;;;;;;;18.77;17.07;;;16.90;99.90;;;;;;5002603;28;20200;-78
2023/09/09 02:15:27;;;;;;;19.53;17.77;;;16.80;99.90;;;;;;4996528;28;20193;-78
2023/09/09 02:17:54;;;;;;;19.23;17.53;;;16.80;99.90;;;;;;5006837;28;20243;-78
2023/09/09 02:20:21;;;;;;;18.70;16.97;;;16.80;99.90;;;;;;5003833;28;20283;-79
2023/09/09 02:22:48;;;;;;;19.50;17.80;;;16.80;99.90;;;;;;5005929;28;20205;-77
2023/09/09 02:25:14;;;;;;;19.03;17.43;;;16.80;99.90;;;;;;5001055;28;20193;-78
2023/09/09 02:27:41;;;;;;;17.07;15.67;;;16.80;99.90;;;;;;5000058;28;20240;-78
2023/09/09 02:30:08;;;;;;;17.90;16.50;;;16.80;99.90;;;;;;4996105;28;20255;-79
2023/09/09 02:32:37;;;;;;;18.10;16.60;;;16.80;99.90;;;;;;4998899;28;20216;-78
2023/09/09 02:35:04;;;;;;;18.50;17.00;;;16.70;99.90;;;;;;5004411;28;20215;-78
2023/09/09 02:37:31;;;;;;;17.47;15.90;;;16.80;99.90;;;;;;5002809;28;20227;-78
2023/09/09 02:39:57;;;;;;;17.57;16.07;;;16.80;99.90;;;;;;5003066;28;20576;-79
2023/09/09 02:42:25;;;;;;;17.90;16.47;;;16.80;99.90;;;;;;5005896;28;20276;-78
2023/09/09 02:44:52;;;;;;;17.30;15.87;;;16.70;99.90;;;;;;5006748;28;20581;-79
2023/09/09 02:47:20;;;;;;;17.50;16.10;;;16.70;99.90;;;;;;5003486;28;20221;-78
2023/09/09 02:49:49;;;;;;;17.80;16.27;;;16.70;99.90;;;;;;5005351;28;20833;-79
2023/09/09 02:52:16;;;;;;;18.47;16.83;;;16.70;99.90;;;;;;5006109;28;20197;-78
2023/09/09 02:54:43;;;;;;;17.53;16.13;;;16.70;99.90;;;;;;5005887;28;20200;-78
2023/09/09 02:57:10;;;;;;;18.27;16.77;;;16.70;99.90;;;;;;5009035;28;20221;-78
2023/09/09 02:59:38;;;;;;;17.80;16.30;;;16.60;99.90;;;;;;5017798;28;20223;-80
2023/09/09 03:02:07;;;;;;;16.73;15.43;;;16.60;99.90;;;;;;5020164;28;20200;-79
2023/09/09 03:04:34;;;;;;;17.80;16.40;;;16.60;99.90;;;;;;5005278;28;20255;-80
2023/09/09 03:07:02;;;;;;;17.07;15.73;;;16.50;99.90;;;;;;5009580;28;20715;-80
2023/09/09 03:09:30;;;;;;;16.40;15.10;;;16.50;99.90;;;;;;5010917;28;20738;-80
2023/09/09 03:11:57;;;;;;;16.57;15.27;;;16.50;99.90;;;;;;5012282;28;20198;-79
2023/09/09 03:14:24;;;;;;;16.27;14.97;;;16.50;99.90;;;;;;5016263;28;20911;-79
2023/09/09 03:16:51;;;;;;;17.10;15.60;;;16.50;99.90;;;;;;5008094;28;20691;-78
2023/09/09 03:19:18;;;;;;;15.93;14.73;;;16.50;99.90;;;;;;5007949;28;20307;-80
2023/09/09 03:21:45;;;;;;;16.17;15.07;;;16.50;99.90;;;;;;5016401;28;20199;-79
2023/09/09 03:24:14;;;;;;;17.57;16.17;;;16.50;99.90;;;;;;5016726;28;20287;-79
2023/09/09 03:26:41;;;;;;;17.50;16.00;;;16.50;99.90;;;;;;5007590;28;20212;-80
2023/09/09 03:29:08;;;;;;;18.20;16.70;;;16.50;99.90;;;;;;5017952;28;20250;-79
2023/09/09 03:31:35;;;;;;;17.53;16.23;;;16.50;99.90;;;;;;5017589;28;20228;-79
2023/09/09 03:34:01;;;;;;;18.40;16.93;;;16.50;99.90;;;;;;5016530;28;20588;-79
2023/09/09 03:36:29;;;;;;;18.37;16.97;;;16.40;99.90;;;;;;5009698;28;20246;-80
2023/09/09 03:38:55;;;;;;;17.63;16.23;;;16.40;99.90;;;;;;5012379;28;20699;-80
2023/09/09 03:41:24;;;;;;;17.60;16.20;;;16.40;99.90;;;;;;5010395;28;20220;-79
2023/09/09 03:43:51;;;;;;;19.10;17.60;;;16.40;99.90;;;;;;5005995;28;20207;-80
2023/09/09 03:46:18;;;;;;;17.63;16.23;;;16.40;99.90;;;;;;5014607;28;20209;-79
2023/09/09 03:48:46;;;;;;;17.70;16.40;;;16.40;99.90;;;;;;5008576;28;20220;-80
2023/09/09 03:51:13;;;;;;;17.93;16.40;;;16.40;99.90;;;;;;5010236;28;20279;-80
2023/09/09 03:53:40;;;;;;;18.13;16.70;;;16.40;99.90;;;;;;5008750;28;20200;-78
2023/09/09 03:56:07;;;;;;;17.80;16.50;;;16.30;99.90;;;;;;5008829;28;20220;-79
2023/09/09 03:58:36;;;;;;;18.83;17.33;;;16.30;99.90;;;;;;5011580;28;20228;-81
2023/09/09 04:01:05;;;;;;;19.17;17.70;;;16.30;99.90;;;;;;5013009;28;20227;-81
2023/09/09 04:03:34;;;;;;;18.13;16.77;;;16.30;99.90;;;;;;5008913;28;20210;-80
2023/09/09 04:06:06;;;;;;;18.17;16.63;;;16.30;99.90;;;;;;4999569;28;20193;-82
2023/09/09 04:08:34;;;;;;;18.73;17.23;;;16.30;99.90;;;;;;4999719;28;20719;-77
2023/09/09 04:11:02;;;;;;;18.60;17.10;;;16.30;99.90;;;;;;5002112;28;20217;-78
2023/09/09 04:13:30;;;;;;;19.10;17.60;;;16.20;99.90;;;;;;5005120;28;20248;-78
2023/09/09 04:16:00;;;;;;;19.27;17.73;;;16.30;99.90;;;;;;5007145;28;20201;-78
2023/09/09 04:18:29;;;;;;;19.20;17.70;;;16.20;99.90;;;;;;5013918;28;20283;-78
2023/09/09 04:20:55;;;;;;;18.27;16.87;;;16.30;99.90;;;;;;5007784;28;20638;-78
2023/09/09 04:23:22;;;;;;;17.67;16.37;;;16.30;99.90;;;;;;5004204;28;20197;-78
2023/09/09 04:25:49;;;;;;;17.40;16.07;;;16.30;99.90;;;;;;5005338;28;20247;-77
2023/09/09 04:28:16;;;;;;;17.50;16.20;;;16.40;99.90;;;;;;5010806;28;20239;-78
2023/09/09 04:30:46;;;;;;;17.27;15.97;;;16.40;99.90;;;;;;5012401;28;20218;-77
2023/09/09 04:33:15;;;;;;;17.00;15.77;;;16.40;99.90;;;;;;5004635;28;20656;-78
2023/09/09 04:35:45;;;;;;;18.17;16.77;;;16.40;99.90;;;;;;5006291;28;20217;-78
2023/09/09 04:38:13;;;;;;;16.93;15.63;;;16.40;99.90;;;;;;5014022;28;20326;-81
2023/09/09 04:40:41;;;;;;;16.47;15.27;;;16.40;99.90;;;;;;5015014;28;20299;-80
2023/09/09 04:43:10;;;;;;;17.47;16.17;;;16.40;99.90;;;;;;5009270;28;20196;-82
2023/09/09 04:45:37;;;;;;;17.60;16.20;;;16.30;99.90;;;;;;4997567;28;20217;-82
2023/09/09 04:48:05;;;;;;;17.50;16.10;;;16.30;99.90;;;;;;4995963;28;20717;-82
2023/09/09 04:50:34;;;;;;;18.33;16.93;;;16.30;99.90;;;;;;5013679;28;20224;-82
2023/09/09 04:53:02;;;;;;;17.47;16.17;;;16.30;99.90;;;;;;5004865;28;20201;-78
2023/09/09 04:55:29;;;;;;;17.37;16.03;;;16.30;99.90;;;;;;5007760;28;20669;-80
2023/09/09 04:57:56;;;;;;;17.60;16.30;;;16.30;99.90;;;;;;5004181;28;20229;-80
2023/09/09 05:00:23;;;;;;;18.40;17.00;;;16.20;99.90;;;;;;5000023;28;20189;-81
2023/09/09 05:02:50;;;;;;;18.10;16.60;;;16.30;99.90;;;;;;5006777;28;20204;-79
2023/09/09 05:05:17;;;;;;;18.00;16.60;;;16.20;99.90;;;;;;5012670;28;20197;-81
2023/09/09 05:07:45;;;;;;;20.43;18.83;;;16.20;99.90;;;;;;5004909;28;20711;-83
2023/09/09 05:10:13;;;;;;;20.27;18.67;;;16.20;99.90;;;;;;4996983;28;20260;-83
2023/09/09 05:12:40;;;;;;;18.30;16.90;;;16.20;99.90;;;;;;5007253;28;20200;-79
2023/09/09 05:15:10;;;;;;;18.57;17.07;;;16.20;99.90;;;;;;5011604;28;20251;-79
2023/09/09 05:17:38;;;;;;;19.20;17.70;;;16.20;99.90;;;;;;5006876;28;20228;-79
2023/09/09 05:20:06;;;;;;;18.83;17.33;;;16.20;99.90;;;;;;5006939;28;20201;-79
2023/09/09 05:22:32;;;;;;;18.93;17.43;;;16.30;99.90;;;;;;5004821;28;20201;-80
2023/09/09 05:25:01;;;;;;;17.60;16.30;;;16.30;99.90;;;;;;5005145;28;20683;-79
2023/09/09 05:27:29;;;;;;;18.43;16.90;;;16.30;99.90;;;;;;5008298;28;20217;-79
2023/09/09 05:29:56;;;;;;;18.47;16.97;;;16.40;99.90;;;;;;5007636;28;20197;-78
2023/09/09 05:32:23;;;;;;;17.80;16.40;;;16.40;99.90;;;;;;5010952;28;20286;-80
2023/09/09 05:34:49;;;;;;;17.57;16.17;;;16.50;99.90;;;;;;5021342;28;20637;-80
2023/09/09 05:37:16;;;;;;;17.60;16.30;;;16.60;99.90;;;;;;5021162;28;20235;-78
2023/09/09 05:39:43;;;;;;;18.67;17.17;;;16.70;99.90;;;;;;5022219;28;20299;-79
2023/09/09 05:42:11;;;;;;;17.97;16.57;;;16.80;99.90;;;;;;5018187;28;20279;-79
2023/09/09 05:44:38;;;;;;;16.97;15.73;;;16.90;99.90;;;;;;5004401;28;20241;-79
2023/09/09 05:47:06;;;;;;;17.17;15.97;;;17.10;99.90;;;;;;5003948;28;20702;-79
2023/09/09 05:49:34;;;;;;;16.50;15.23;;;17.20;99.90;;;;;;5007164;28;20211;-79
2023/09/09 05:52:01;;;;;;;17.07;15.77;;;17.40;99.90;;;;;;5007823;28;20233;-79
2023/09/09 05:54:28;;;;;;;16.40;15.20;;;17.50;99.90;;;;;;5008498;28;20201;-80
2023/09/09 05:56:56;;;;;;;16.80;15.47;;;17.70;99.90;;;;;;5010543;28;20207;-79
2023/09/09 05:59:24;;;;;;;17.03;15.73;;;17.80;99.90;;;;;;5006476;28;20197;-79
2023/09/09 06:01:51;;;;;;;16.47;15.17;;;17.80;99.90;;;;;;5009337;28;20193;-79
2023/09/09 06:04:19;;;;;;;17.20;15.90;;;18.00;99.90;;;;;;5003553;28;20253;-78
2023/09/09 06:06:47;;;;;;;17.70;16.37;;;18.00;99.90;;;;;;5006485;28;20616;-79
2023/09/09 06:09:14;;;;;;;17.53;16.10;;;18.20;99.90;;;;;;5008419;28;20225;-79
2023/09/09 06:11:41;;;;;;;17.10;15.80;;;18.20;99.90;;;;;;5015714;28;20243;-80
2023/09/09 06:14:08;;;;;;;16.47;15.27;;;18.30;99.90;;;;;;5006487;28;20617;-79
2023/09/09 06:16:36;;;;;;;17.10;15.80;;;18.40;99.90;;;;;;5007798;28;20207;-80
2023/09/09 06:19:03;;;;;;;15.67;14.47;;;18.50;99.90;;;;;;5008893;28;20218;-80
2023/09/09 06:21:31;;;;;;;16.17;14.97;;;18.50;99.90;;;;;;5004931;28;20189;-80
2023/09/09 06:23:58;;;;;;;15.97;14.77;;;18.60;99.90;;;;;;5004128;28;20258;-79
2023/09/09 06:26:30;;;;;;;16.97;15.67;;;18.70;99.90;;;;;;5011971;28;20260;-78
2023/09/09 06:28:57;;;;;;;16.50;15.30;;;18.70;99.90;;;;;;5004118;28;20238;-78
2023/09/09 06:31:24;;;;;;;16.50;15.30;;;18.80;99.90;;;;;;5007356;28;20216;-80
2023/09/09 06:33:52;;;;;;;16.00;14.80;;;18.90;99.90;;;;;;5010396;28;20667;-79
2023/09/09 06:36:24;;;;;;;16.17;14.97;;;19.00;99.90;;;;;;5002805;28;20204;-82
2023/09/09 06:38:52;;;;;;;15.83;14.63;;;19.00;99.90;;;;;;5014681;28;20317;-81
2023/09/09 06:41:19;;;;;;;15.80;14.70;;;19.10;99.90;;;;;;5007141;28;20239;-81
2023/09/09 06:43:47;;;;;;;12.93;11.83;;;19.20;99.90;;;;;;5003748;28;20211;-81
2023/09/09 06:46:14;;;;;;;15.80;14.60;;;19.20;99.90;;;;;;4998459;28;20208;-82
2023/09/09 06:48:44;;;;;;;14.70;13.50;;;19.30;99.90;;;;;;5000708;28;20225;-82
2023/09/09 06:51:12;;;;;;;17.03;15.63;;;19.40;99.90;;;;;;5010924;28;20216;-80
2023/09/09 06:53:45;;;;;;;16.80;15.60;;;19.40;99.90;;;;;;5009134;28;20215;-83
2023/09/09 06:56:12;;;;;;;12.30;11.30;;;19.50;99.90;;;;;;5011054;28;20352;-79
2023/09/09 06:58:39;;;;;;;12.37;11.37;;;19.60;99.90;;;;;;5014907;28;20710;-79
2023/09/09 07:01:06;;;;;;;13.77;12.67;;;19.70;99.90;;;;;;5012976;28;20200;-80
2023/09/09 07:03:33;;;;;;;13.57;12.37;;;19.80;99.90;;;;;;5011700;28;20204;-80
2023/09/09 07:06:00;;;;;;;13.90;12.80;;;19.90;99.90;;;;;;5006004;28;20199;-80
2023/09/09 07:08:29;;;;;;;13.23;12.07;;;20.10;99.90;;;;;;5012610;28;20729;-80
2023/09/09 07:10:56;;;;;;;13.43;12.33;;;20.10;99.90;;;;;;5012859;28;20201;-80
2023/09/09 07:13:23;;;;;;;13.57;12.47;;;20.30;99.90;;;;;;5011088;28;20200;-80
2023/09/09 07:15:52;;;;;;;17.40;16.10;;;20.60;99.90;;;;;;5011730;28;20259;-80
2023/09/09 07:18:18;;;;;;;15.20;14.00;;;20.90;99.90;;;;;;5012813;28;20737;-80
2023/09/09 07:20:46;;;;;;;14.57;13.30;;;21.40;99.90;;;;;;5011985;28;20201;-80
2023/09/09 07:23:14;;;;;;;11.10;10.00;;;21.70;99.90;;;;;;5013866;28;20304;-81
2023/09/09 07:25:42;;;;;;;12.90;11.70;;;22.20;99.90;;;;;;5009587;28;20196;-80
2023/09/09 07:28:09;;;;;;;12.23;11.03;;;22.60;99.90;;;;;;5014864;28;20216;-80
2023/09/09 07:30:36;;;;;;;9.53;8.53;;;22.90;99.90;;;;;;5015166;28;20197;-81
2023/09/09 07:33:03;;;;;;;13.47;12.37;;;23.40;99.90;;;;;;5014148;28;20223;-81
2023/09/09 07:35:29;;;;;;;13.27;9.07;;;23.80;99.90;;;;;;5015463;28;20638;-81
2023/09/09 07:37:56;;;;;;;12.27;9.67;;;24.20;99.90;;;;;;5009442;28;20219;-79
2023/09/09 07:40:23;;;;;;;10.63;9.53;;;24.50;99.90;;;;;;5016300;28;20231;-79
2023/09/09 07:42:53;;;;;;;11.10;8.73;;;24.80;99.90;;;;;;5001344;28;20193;-78
2023/09/09 07:45:20;;;;;;;12.87;11.77;;;25.20;99.90;;;;;;5016588;28;20251;-79
2023/09/09 07:47:47;;;;;;;9.27;8.30;;;25.40;99.90;;;;;;5015723;28;20220;-81
2023/09/09 07:50:17;;;;;;;10.03;9.13;;;25.60;99.90;;;;;;5015514;28;20291;-82
2023/09/09 07:52:44;;;;;;;10.13;8.97;;;25.90;99.90;;;;;;5009111;28;20212;-80
2023/09/09 07:55:11;;;;;;;12.70;11.70;;;26.30;99.90;;;;;;5009245;28;20693;-79
2023/09/09 07:57:38;;;;;;;13.10;11.73;;;26.60;99.90;;;;;;5015257;28;20221;-81
2023/09/09 08:00:08;;;;;;;13.00;11.90;;;26.70;99.90;;;;;;5014118;28;20197;-80
2023/09/09 08:02:38;;;;;;;14.43;13.30;;;26.80;99.90;;;;;;5015907;28;20197;-80
2023/09/09 08:05:06;;;;;;;12.63;11.47;;;27.00;99.90;;;;;;5013604;28;20674;-80
2023/09/09 08:07:44;;;;;;;13.40;12.40;;;27.10;99.90;;;;;;5014411;28;20707;-88
2023/09/09 08:10:12;;;;;;;14.73;13.33;;;27.10;99.90;;;;;;5014777;28;20212;-79
2023/09/09 08:12:39;;;;;;;14.50;13.30;;;27.20;99.90;;;;;;5015472;28;20228;-78
2023/09/09 08:15:09;;;;;;;12.37;11.33;;;27.40;99.90;;;;;;5014380;28;20689;-79
2023/09/09 08:17:36;;;;;;;13.30;12.30;;;27.70;99.90;;;;;;5011821;28;20645;-79
2023/09/09 08:20:30;;;;;;;14.33;13.07;;;27.90;99.90;;;;;;5010255;28;20204;-85
2023/09/09 08:22:57;;;;;;;14.57;13.37;;;27.60;99.90;;;;;;5003009;28;20208;-83
2023/09/09 08:25:24;;;;;;;14.10;12.90;;;27.80;99.90;;;;;;5006248;28;20202;-81
2023/09/09 08:27:51;;;;;;;14.27;12.87;;;27.80;99.90;;;;;;5014710;28;20220;-85
2023/09/09 08:30:19;;;;;;;14.60;13.33;;;28.20;99.90;;;;;;5012721;28;21338;-81
2023/09/09 08:32:46;;;;;;;14.47;13.23;;;28.30;99.90;;;;;;5010345;28;20271;-81
2023/09/09 08:35:13;;;;;;;13.73;12.53;;;28.10;99.90;;;;;;5013359;28;20204;-81
2023/09/09 08:37:40;;;;;;;14.48;13.25;;;28.20;99.90;;;;;;5013991;28;20455;-82
2023/09/09 08:40:09;;;;;;;14.60;13.55;;;28.30;99.90;;;;;;5012648;28;20443;-79
2023/09/09 08:42:56;;;;;;;13.47;12.37;;;28.50;99.90;;;;;;5016419;28;20207;-79
2023/09/09 08:45:34;;;;;;;13.43;12.33;;;28.50;99.90;;;;;;5014663;28;20259;-79
2023/09/09 08:48:06;;;;;;;14.40;13.35;;;28.70;99.90;;;;;;5016223;28;20473;-79
2023/09/09 08:50:36;;;;;;;14.13;12.80;;;29.20;99.90;;;;;;5010072;28;20505;-79
2023/09/09 08:53:04;;;;;;;13.27;12.07;;;29.30;99.90;;;;;;5010668;28;20259;-79
2023/09/09 08:55:31;;;;;;;14.30;12.80;;;29.30;99.90;;;;;;5016411;28;20545;-79
2023/09/09 08:57:58;;;;;;;14.57;13.17;;;29.10;99.90;;;;;;5015438;28;20224;-79
2023/09/09 09:00:33;;;;;;;14.30;13.13;;;29.00;99.90;;;;;;5016373;28;20196;-80
2023/09/09 09:03:00;;;;;;;14.80;13.30;;;29.10;99.90;;;;;;5016854;28;20714;-79
2023/09/09 09:05:27;;;;;;;14.17;13.07;;;29.20;99.90;;;;;;5012341;28;20576;-79
2023/09/09 09:07:54;;;;;;;14.33;13.20;;;29.40;99.90;;;;;;5010956;28;20270;-79
2023/09/09 09:10:22;;;;;;;13.90;12.80;;;29.40;99.90;;;;;;5011264;28;20201;-79
2023/09/09 09:12:49;;;;;;;13.30;12.30;;;29.70;99.90;;;;;;5013876;28;20221;-80
2023/09/09 09:15:20;;;;;;;14.17;13.07;;;29.90;99.90;;;;;;5012849;28;20216;-79
2023/09/09 09:17:49;;;;;;;12.43;11.33;;;29.80;99.90;;;;;;5012296;28;20228;-80
2023/09/09 09:20:27;;;;;;;12.10;11.10;;;30.00;99.90;;;;;;5013696;28;20189;-79
2023/09/09 09:22:58;;;;;;;11.60;10.70;;;30.00;99.90;;;;;;5013651;28;20579;-79
2023/09/09 09:25:26;;;;;;;11.10;10.20;;;30.20;99.90;;;;;;5014695;28;20407;-79
2023/09/09 09:27:55;;;;;;;11.67;10.57;;;30.20;99.90;;;;;;5012977;28;20228;-79
2023/09/09 09:30:24;;;;;;;12.00;10.90;;;30.20;99.90;;;;;;5015375;28;20200;-79
2023/09/09 09:32:54;;;;;;;11.93;10.93;;;30.40;99.90;;;;;;5012433;28;20360;-77
2023/09/09 09:35:25;;;;;;;11.70;10.63;;;30.50;99.90;;;;;;5015252;28;20338;-79
2023/09/09 09:37:53;;;;;;;11.67;10.67;;;30.30;99.90;;;;;;5013026;28;20225;-83
2023/09/09 09:40:20;;;;;;;12.30;11.30;;;30.30;99.90;;;;;;5014289;28;20232;-82
2023/09/09 09:42:47;;;;;;;12.73;11.73;;;30.50;99.90;;;;;;5013684;28;20196;-83
2023/09/09 09:45:14;;;;;;;13.00;12.00;;;30.50;99.90;;;;;;5013349;28;20655;-83
2023/09/09 09:47:46;;;;;;;13.07;11.80;;;30.60;99.90;;;;;;5004911;28;20281;-83
2023/09/09 09:50:22;;;;;;;11.48;10.57;;;30.40;99.90;;;;;;5002989;28;20434;-83
2023/09/09 09:52:57;;;;;;;12.23;11.07;;;30.40;99.90;;;;;;5007017;28;20227;-82
2023/09/09 09:58:32;;;;;;;12.30;11.10;;;30.70;99.90;;;;;;5001577;28;20967;-84
2023/09/09 10:01:09;;;;;;;10.77;9.90;;;30.80;99.90;;;;;;5004720;28;20463;-85
2023/09/09 10:03:44;;;;;;;10.73;9.83;;;31.00;99.90;;;;;;5004558;28;20196;-84
2023/09/09 10:06:52;;;;;;;10.77;9.93;;;31.10;99.90;;;;;;5011898;28;20211;-86
2023/09/09 10:09:29;;;;;;;11.50;10.50;;;31.20;99.90;;;;;;4955278;28;20612;-82
2023/09/09 10:12:00;;;;;;;11.20;10.30;;;31.00;99.90;;;;;;5007931;28;20224;-83
2023/09/09 10:15:05;;;;;;;12.40;11.50;;;30.90;99.90;;;;;;5011942;28;20242;-86
2023/09/09 10:17:35;;;;;;;12.07;11.17;;;30.90;99.90;;;;;;4990791;28;20275;-83
2023/09/09 10:20:06;;;;;;;12.07;11.17;;;30.90;99.90;;;;;;5014303;28;20189;-83
2023/09/09 10:22:42;;;;;;;13.03;12.13;;;30.60;99.90;;;;;;5005203;28;20204;-83
2023/09/09 10:25:17;;;;;;;12.10;11.00;;;30.20;99.90;;;;;;5013976;28;20199;-83
2023/09/09 10:27:45;;;;;;;11.40;10.50;;;30.00;99.90;;;;;;5014949;28;20358;-82
2023/09/09 10:30:12;;;;;;;12.00;11.10;;;30.00;99.90;;;;;;5014962;28;20203;-83
2023/09/09 10:32:46;;;;;;;12.20;11.20;;;29.90;99.90;;;;;;5014215;28;20221;-84
2023/09/09 10:35:17;;;;;;;11.37;10.47;;;29.90;99.90;;;;;;5010390;28;20196;-81
2023/09/09 10:37:46;;;;;;;12.80;11.53;;;29.90;99.90;;;;;;5008115;28;20251;-83
2023/09/09 10:40:15;;;;;;;11.47;10.50;;;29.80;99.90;;;;;;5014111;28;20196;-83
2023/09/09 10:42:44;;;;;;;11.80;10.70;;;29.60;99.90;;;;;;5013612;28;20197;-83
2023/09/09 10:45:24;;;;;;;11.80;10.60;;;29.50;99.90;;;;;;5013117;28;20243;-83
2023/09/09 10:48:10;;;;;;;11.30;10.30;;;29.30;99.90;;;;;;5014042;28;20270;-83
2023/09/09 10:50:47;;;;;;;10.97;10.07;;;29.40;99.90;;;;;;5012654;28;20213;-84
2023/09/09 10:53:29;;;;;;;11.40;10.43;;;29.50;99.90;;;;;;5009253;28;20287;-84
2023/09/09 10:55:58;;;;;;;11.23;10.33;;;29.60;99.90;;;;;;5015193;28;20188;-84
2023/09/09 10:58:32;;;;;;;11.10;10.20;;;29.40;99.90;;;;;;5015692;28;20227;-82
2023/09/09 11:00:59;;;;;;;10.90;9.90;;;29.30;99.90;;;;;;5015698;28;20659;-82
2023/09/09 11:03:53;;;;;;;11.27;10.30;;;29.10;99.90;;;;;;5020538;28;20252;-83
2023/09/09 11:06:25;;;;;;;10.80;9.43;;;28.90;99.90;;;;;;5015627;28;20203;-83
2023/09/09 11:08:56;;;;;;;12.07;10.33;;;28.90;99.90;;;;;;5013020;28;20213;-83
2023/09/09 11:11:28;;;;;;;9.60;8.80;;;28.70;99.90;;;;;;5017076;28;20690;-84
2023/09/09 11:14:02;;;;;;;12.07;11.07;;;28.70;99.90;;;;;;5018831;28;20263;-84
2023/09/09 11:16:33;;;;;;;12.70;11.60;;;28.70;99.90;;;;;;5032354;28;20555;-83
2023/09/09 11:19:06;;;;;;;10.97;10.17;;;28.70;99.90;;;;;;5019312;28;20219;-83
2023/09/09 11:21:34;;;;;;;10.93;10.00;;;28.80;99.90;;;;;;5018624;28;20209;-80
2023/09/09 11:24:03;;;;;;;10.43;9.53;;;28.80;99.90;;;;;;5017693;28;20193;-83
2023/09/09 11:26:31;;;;;;;10.17;9.33;;;28.70;99.90;;;;;;5014828;28;20683;-84
2023/09/09 11:29:19;;;;;;;11.53;10.40;;;28.70;99.90;;;;;;5006312;28;20216;-84
2023/09/09 11:31:46;;;;;;;10.43;9.53;;;28.60;99.90;;;;;;5017782;28;20193;-83
2023/09/09 11:34:14;;;;;;;10.93;9.93;;;28.50;99.90;;;;;;5009443;28;20217;-82
2023/09/09 11:37:05;;;;;;;11.17;10.27;;;28.50;99.90;;;;;;5011172;28;20198;-85
2023/09/09 11:39:55;;;;;;;10.20;6.93;;;28.60;99.90;;;;;;5009538;28;20208;-81
2023/09/09 11:42:22;;;;;;;7.00;6.37;;;28.50;99.90;;;;;;5019080;28;20561;-81
2023/09/09 11:44:49;;;;;;;10.20;9.30;;;28.30;99.90;;;;;;5019884;28;20196;-82
2023/09/09 11:47:17;;;;;;;7.63;6.30;;;28.40;99.90;;;;;;5012352;28;20228;-83
2023/09/09 11:49:45;;;;;;;8.87;6.50;;;28.30;99.90;;;;;;5018452;28;20200;-82
2023/09/09 11:52:12;;;;;;;8.87;6.57;;;28.30;99.90;;;;;;5014845;28;20734;-83
2023/09/09 11:54:42;;;;;;;6.97;6.03;;;28.30;99.90;;;;;;5015404;28;20201;-82
2023/09/09 11:57:11;;;;;;;6.67;5.97;;;28.20;99.90;;;;;;5014639;28;20215;-81
2023/09/09 11:59:45;;;;;;;7.63;6.80;;;28.30;99.90;;;;;;5020274;28;20204;-82
2023/09/09 12:02:21;;;;;;;8.07;7.33;;;28.30;99.90;;;;;;5017383;28;20473;-82
2023/09/09 12:04:55;;;;;;;8.10;5.97;;;28.30;99.90;;;;;;5012068;28;20192;-82
2023/09/09 12:07:25;;;;;;;7.10;6.33;;;28.30;99.90;;;;;;5017792;28;20224;-81
2023/09/09 12:09:52;;;;;;;6.87;6.17;;;28.30;99.90;;;;;;5018400;28;20247;-82
2023/09/09 12:12:21;;;;;;;7.93;6.53;;;28.30;99.90;;;;;;5017470;28;20197;-82
2023/09/09 12:14:49;;;;;;;8.77;5.87;;;28.30;99.90;;;;;;5006220;28;20287;-82
2023/09/09 12:17:16;;;;;;;7.83;5.97;;;28.30;99.90;;;;;;5018212;28;20824;-83
2023/09/09 12:19:44;;;;;;;6.47;5.87;;;28.30;99.90;;;;;;5016442;28;20209;-81
2023/09/09 12:22:11;;;;;;;8.37;6.50;;;28.50;99.90;;;;;;5017293;28;20188;-79
2023/09/09 12:24:41;;;;;;;6.83;5.93;;;28.40;99.90;;;;;;5016712;28;20196;-79
2023/09/09 12:27:08;;;;;;;6.80;6.07;;;28.40;99.90;;;;;;5011174;28;20239;-79
2023/09/09 12:29:46;;;;;;;10.83;9.73;;;28.40;99.90;;;;;;5018145;28;20577;-79
2023/09/09 12:32:13;;;;;;;9.23;8.43;;;28.30;99.90;;;;;;5014158;28;20573;-79
2023/09/09 12:34:44;;;;;;;10.00;8.97;;;28.30;99.90;;;;;;5009398;28;20264;-79
2023/09/09 12:37:10;;;;;;;9.53;8.63;;;28.30;99.90;;;;;;5001034;28;20232;-79
2023/09/09 12:39:37;;;;;;;7.13;5.60;;;28.40;99.90;;;;;;4999696;28;20216;-79